This is the latest recevied weather packets stored in our database for station/object N4OGP-WX. If no packets are shown the sender has not sent any weather packets the latest 10 day(s).
| Time | Temp. | Humidity | Pressure | Rain* | Wind** | Luminosity | Snow |
|---|---|---|---|---|---|---|---|
| 1777332226 | 23.89° C | 42% | 1020.4 hPa | 0 mm | - | - | - |
| 1777332166 | 23.89° C | 42% | 1020.4 hPa | 0 mm | - | - | - |
| 1777332076 | 25.56° C | 81% | 1014.5 hPa | 0 mm | - | - | - |
| 1777332016 | 23.89° C | 42% | 1020.4 hPa | 0 mm | - | - | - |
| 1777331956 | 25.56° C | 80% | 1014.6 hPa | 0 mm | - | - | - |
| 1777331866 | 25.56° C | 80% | 1014.5 hPa | 0 mm | - | - | - |
| 1777331806 | 25.56° C | 80% | 1014.5 hPa | 0 mm | - | - | - |
| 1777331746 | 23.89° C | 42% | 1020.4 hPa | 0 mm | - | - | - |
| 1777331687 | 25.56° C | 79% | 1014.6 hPa | 0 mm | - | - | - |
| 1777331626 | 23.89° C | 42% | 1020.4 hPa | 0 mm | - | - | - |
| 1777331566 | 26.11° C | 79% | 1014.6 hPa | 0 mm | - | - | - |
| 1777331506 | 23.89° C | 42% | 1020.4 hPa | 0 mm | - | - | - |
| 1777331446 | 26.11° C | 79% | 1014.6 hPa | 0 mm | - | - | - |
| 1777331386 | 26.11° C | 79% | 1014.6 hPa | 0 mm | - | - | - |
| 1777331326 | 23.89° C | 42% | 1020.4 hPa | 0 mm | - | - | - |
| 1777331267 | 23.89° C | 42% | 1020.4 hPa | 0 mm | - | - | - |
| 1777331207 | 26.11° C | 80% | 1014.5 hPa | 0 mm | - | - | - |
| 1777331146 | 26.11° C | 79% | 1014.6 hPa | 0 mm | - | - | - |
| 1777331087 | 26.11° C | 80% | 1014.6 hPa | 0 mm | - | - | - |
| 1777331026 | 23.89° C | 42% | 1020.4 hPa | 0 mm | - | - | - |
| 1777330966 | 26.11° C | 79% | 1014.5 hPa | 0 mm | - | - | - |
| 1777330906 | 23.89° C | 42% | 1020.4 hPa | 0 mm | - | - | - |
| 1777330846 | 26.11° C | 78% | 1014.7 hPa | 0 mm | - | - | - |
| 1777330786 | 23.89° C | 42% | 1020.4 hPa | 0 mm | - | - | - |
| 1777330726 | 23.89° C | 42% | 1020.4 hPa | 0 mm | - | - | - |
* Rain latest hour (hover to see other rain measurements)
** Current wind speed in m/s (hover to see current wind gust speed)